<?xml version="1.0" encoding="utf-8"?>
<gpx creator="Garmin Explore App" version="1.1" xmlns:adv="http://www.garmin.com/xmlschemas/AdventuresExtensions/v1" xmlns:gpxtpx="http://www.garmin.com/xmlschemas/TrackPointExtension/v1" xmlns:gpxtrx="http://www.garmin.com/xmlschemas/GpxExtensions/v3" xmlns:gpxx="http://www.garmin.com/xmlschemas/GpxExtensions/v3" xmlns:trp="http://www.garmin.com/xmlschemas/TripExtensions/v1" xmlns:wptx1="http://www.garmin.com/xmlschemas/WaypointExtension/v1" xmlns:xsi="http://www.w3.org/2001/XMLSchema-instance" xmlns="http://www.topografix.com/GPX/1/1" xsi:schemaLocation="http://www.topografix.com/GPX/1/1 http://www.topografix.com/GPX/1/1/gpx.xsd http://www.garmin.com/xmlschemas/WaypointExtension/v1 http://www8.garmin.com/xmlschemas/WaypointExtensionv1.xsd http://www.garmin.com/xmlschemas/TrackPointExtension/v1 http://www.garmin.com/xmlschemas/TrackPointExtensionv1.xsd http://www.garmin.com/xmlschemas/GpxExtensions/v3 http://www8.garmin.com/xmlschemas/GpxExtensionsv3.xsd http://www.garmin.com/xmlschemas/ActivityExtension/v1 http://www8.garmin.com/xmlschemas/ActivityExtensionv1.xsd http://www.garmin.com/xmlschemas/AdventuresExtensions/v1 http://www8.garmin.com/xmlschemas/AdventuresExtensionv1.xsd http://www.garmin.com/xmlschemas/PressureExtension/v1 http://www.garmin.com/xmlschemas/PressureExtensionv1.xsd">
	<metadata>
		<name>2026-05-05 20:32:17</name>
		<link href="http://www.garmin.com">
			<text>Garmin International</text>
		</link>
		<time>2026-05-05T21:39:06Z</time>
	</metadata>
	<trk>
		<name>2026-05-05 20:32:17</name>
		<extensions>
			<gpxx:TrackExtension>
				<gpxx:DisplayColor>Cyan</gpxx:DisplayColor>
			</gpxx:TrackExtension>
		</extensions>
		<trkseg>
			<trkpt lat="59.564878821372986" lon="31.45429754257202">
				<ele>54.06999969482422</ele>
				<time>2026-05-05T17:21:58Z</time>
			</trkpt>
			<trkpt lat="59.56487846374512" lon="31.454296946525574">
				<ele>54.06999969482422</ele>
				<time>2026-05-05T17:21:59Z</time>
			</trkpt>
			<trkpt lat="59.564878702163696" lon="31.454291820526123">
				<ele>59.540000915527344</ele>
				<time>2026-05-05T17:22:02Z</time>
			</trkpt>
			<trkpt lat="59.564878702163696" lon="31.454291224479675">
				<ele>59.540000915527344</ele>
				<time>2026-05-05T17:22:03Z</time>
			</trkpt>
			<trkpt lat="59.56489050388336" lon="31.454282999038696">
				<ele>61.939998626708984</ele>
				<time>2026-05-05T17:22:16Z</time>
			</trkpt>
			<trkpt lat="59.56489360332489" lon="31.45426106452942">
				<ele>62.349998474121094</ele>
				<time>2026-05-05T17:22:42Z</time>
			</trkpt>
			<trkpt lat="59.56491148471832" lon="31.45425510406494">
				<ele>63.11000061035156</ele>
				<time>2026-05-05T17:22:59Z</time>
			</trkpt>
			<trkpt lat="59.564906001091" lon="31.45427644252777">
				<ele>64.5199966430664</ele>
				<time>2026-05-05T17:23:18Z</time>
			</trkpt>
			<trkpt lat="59.5649094581604" lon="31.45415198802948">
				<ele>66.12000274658203</ele>
				<time>2026-05-05T17:23:34Z</time>
			</trkpt>
			<trkpt lat="59.564903259277344" lon="31.45372760295868">
				<ele>68.12000274658203</ele>
				<time>2026-05-05T17:23:53Z</time>
			</trkpt>
			<trkpt lat="59.564903140068054" lon="31.453707098960876">
				<ele>68.25</ele>
				<time>2026-05-05T17:23:54Z</time>
			</trkpt>
			<trkpt lat="59.56490981578827" lon="31.45359480381012">
				<ele>68.9000015258789</ele>
				<time>2026-05-05T17:24:01Z</time>
			</trkpt>
			<trkpt lat="59.56492280960083" lon="31.4533953666687">
				<ele>70.94999694824219</ele>
				<time>2026-05-05T17:24:15Z</time>
			</trkpt>
			<trkpt lat="59.564902782440186" lon="31.45336091518402">
				<ele>73.62000274658203</ele>
				<time>2026-05-05T17:24:37Z</time>
			</trkpt>
			<trkpt lat="59.56491243839264" lon="31.45327341556549">
				<ele>76.2300033569336</ele>
				<time>2026-05-05T17:25:05Z</time>
			</trkpt>
			<trkpt lat="59.564863443374634" lon="31.45326864719391">
				<ele>78.61000061035156</ele>
				<time>2026-05-05T17:25:32Z</time>
			</trkpt>
			<trkpt lat="59.564902663230896" lon="31.453149914741516">
				<ele>80.26000213623047</ele>
				<time>2026-05-05T17:25:52Z</time>
			</trkpt>
			<trkpt lat="59.56494140625" lon="31.453012824058533">
				<ele>81.37999725341797</ele>
				<time>2026-05-05T17:26:06Z</time>
			</trkpt>
			<trkpt lat="59.565033078193665" lon="31.452942967414856">
				<ele>83.05999755859375</ele>
				<time>2026-05-05T17:26:26Z</time>
			</trkpt>
			<trkpt lat="59.56512916088104" lon="31.452773094177246">
				<ele>84.81999969482422</ele>
				<time>2026-05-05T17:26:47Z</time>
			</trkpt>
			<trkpt lat="59.565144300460815" lon="31.452649354934692">
				<ele>86.36000061035156</ele>
				<time>2026-05-05T17:27:04Z</time>
			</trkpt>
			<trkpt lat="59.56514549255371" lon="31.452515959739685">
				<ele>87.12999725341797</ele>
				<time>2026-05-05T17:27:15Z</time>
			</trkpt>
			<trkpt lat="59.565107464790344" lon="31.452288389205933">
				<ele>88.80000305175781</ele>
				<time>2026-05-05T17:27:33Z</time>
			</trkpt>
			<trkpt lat="59.5651113986969" lon="31.452051520347595">
				<ele>90.52999877929688</ele>
				<time>2026-05-05T17:27:54Z</time>
			</trkpt>
			<trkpt lat="59.56510853767395" lon="31.451738357543945">
				<ele>92.66000366210938</ele>
				<time>2026-05-05T17:28:15Z</time>
			</trkpt>
			<trkpt lat="59.56511056423187" lon="31.451749563217163">
				<ele>94.66999816894531</ele>
				<time>2026-05-05T17:28:45Z</time>
			</trkpt>
			<trkpt lat="59.565136790275574" lon="31.45194923877716">
				<ele>95.79000091552734</ele>
				<time>2026-05-05T17:29:11Z</time>
			</trkpt>
			<trkpt lat="59.56515312194824" lon="31.452152252197266">
				<ele>96.77999877929688</ele>
				<time>2026-05-05T17:29:31Z</time>
			</trkpt>
			<trkpt lat="59.56513428688049" lon="31.45237958431244">
				<ele>97.87000274658203</ele>
				<time>2026-05-05T17:29:57Z</time>
			</trkpt>
			<trkpt lat="59.56513059139252" lon="31.452633142471313">
				<ele>99.08000183105469</ele>
				<time>2026-05-05T17:30:16Z</time>
			</trkpt>
			<trkpt lat="59.56512999534607" lon="31.45279622077942">
				<ele>99.55999755859375</ele>
				<time>2026-05-05T17:30:27Z</time>
			</trkpt>
			<trkpt lat="59.56512916088104" lon="31.45282757282257">
				<ele>99.56999969482422</ele>
				<time>2026-05-05T17:30:29Z</time>
			</trkpt>
			<trkpt lat="59.56509780883789" lon="31.453086853027344">
				<ele>100.83999633789062</ele>
				<time>2026-05-05T17:30:50Z</time>
			</trkpt>
			<trkpt lat="59.56507384777069" lon="31.453336596488953">
				<ele>101.77999877929688</ele>
				<time>2026-05-05T17:31:09Z</time>
			</trkpt>
			<trkpt lat="59.565054297447205" lon="31.45353853702545">
				<ele>102.94999694824219</ele>
				<time>2026-05-05T17:31:25Z</time>
			</trkpt>
			<trkpt lat="59.56505608558655" lon="31.453758597373962">
				<ele>103.52999877929688</ele>
				<time>2026-05-05T17:31:38Z</time>
			</trkpt>
			<trkpt lat="59.56494760513306" lon="31.454193472862244">
				<ele>105.45999908447266</ele>
				<time>2026-05-05T17:31:58Z</time>
			</trkpt>
			<trkpt lat="59.56492757797241" lon="31.45429241657257">
				<ele>105.5</ele>
				<time>2026-05-05T17:32:13Z</time>
			</trkpt>
		</trkseg>
	</trk>
</gpx>
